Jonesboro, Texas
Current Conditions -  °F | °C
As of 11:55 AM on Monday 24 Nov 2014 (Local Time) from KGOP Reporting Station
Clear Clear  
Wind Chill: 12°   Ceiling: Unl
Heat Index: 12°   Visibility: 10mi
Dew Point: -1°   Wind: 3mph
Humidity: 41%   Direction: 320°NW
Pressure: 30.13"   Gusts: NA
Location:  31.61°N, 97.88°W
Report Text: KGOP 241755Z AUTO 32003KT 10SM CLR 12/M01 A3013 RMK AO2 PWINO
Loading
Personal Weather Stations






























Interactive Weather Map New forecast layout! Learn more

10-Day Weather Forecast

Advertisements
Track Severe Weather on mobile